Sonora Municipal Airport
KSOA : now visible

Airfield :











YOU CAN JOIN US ON...

 
LOGIN :

Register | Disclaimer

   EN    FR    IT 

 









Legend :    VFR   Marginal VFR   IFR   Intensive IFR   Very Intensive IFR
Visi :
Ceiling :
>= 8 km
>= 3000ft
5 to 8 km
1000 to 3000 ft
1500m to 5 km
500 to 1000 ft
800 to 1500m
200 to 500 ft
< 800m
< 200 ft
Symbols :   Thunderstorms  Fog  Heavy snow  Heavy precipitations  Wind > 20 kt






- Airport Elevation : 2140 ft


KSOA - Sonora Municipal

CURRENT METAR :
  • 101515Z AUTO 01012G17KT 6SM -RA OVC009 02/02 A3030 RMK AO2

EXPIRED METARs :
  • 101455Z AUTO 01010KT 8SM RA OVC008 02/02 A3029 RMK AO2
  • 101435Z AUTO 02010KT 5SM RA 02/02 A3027 RMK AO2
  • 101415Z AUTO 01008KT 6SM RA OVC007 03/02 A3026 RMK AO2
  • 101355Z AUTO 01007G13KT 9SM -RA BKN009 OVC014 02/02 A3024 RMK AO2
  • 101335Z AUTO 02013KT -RA BKN008 OVC013 03/02 A3023 RMK AO2
  • 101315Z AUTO 01011KT 5SM RA BKN007 BKN019 OVC029 03/03 A3021 RMK AO2
  • 101255Z AUTO 03010KT 4SM RA BKN007 BKN019 OVC045 03/03 A3020 RMK AO2
  • 101235Z AUTO 02008KT 4SM RA BKN006 BKN013 OVC029 04/03 A3020 RMK AO2

TAF KSOA
Valid from the 10 at 15:00 until the 11 at 12:00 UTC


101511Z 1015/1112 01010KT P6SM -RA OVC008
FM102000 01005KT P6SM BKN015 OVC025
FM110200 VRB03KT P6SM SCT050



MET'MAP, your aeronautical weather chart ! - Copyright ORBIFLY December 2007 - Disclaimer

ORBIFLY MET'MAP TEAM :

Programming & Development : Alexandra Zaïnal
Concept & original design : Baudouin d'Aumeries
Assistance for programming : Marc-Olivier Méhu
Technical & hardware support : Manuel Goepfert

Contact : metmap@orbifly.com




SOURCES & CREDITS :

   NOAA       Earth
Advisory